sensor_id;sensor_type;location;lat;lon;timestamp;P1;durP1;ratioP1;P2;durP2;ratioP2
68942;SDS011;60852;52.190;4.422;2023-07-31T00:00:13;11.96;;;9.54;;
68942;SDS011;60852;52.190;4.422;2023-07-31T00:02:39;13.35;;;10.34;;
68942;SDS011;60852;52.190;4.422;2023-07-31T00:05:04;14.18;;;10.82;;
68942;SDS011;60852;52.190;4.422;2023-07-31T00:07:31;12.76;;;9.88;;
68942;SDS011;60852;52.190;4.422;2023-07-31T00:09:57;11.38;;;8.93;;
68942;SDS011;60852;52.190;4.422;2023-07-31T00:12:23;12.07;;;9.08;;
68942;SDS011;60852;52.190;4.422;2023-07-31T00:14:49;9.53;;;7.29;;
68942;SDS011;60852;52.190;4.422;2023-07-31T00:17:14;8.76;;;6.93;;
68942;SDS011;60852;52.190;4.422;2023-07-31T00:19:40;8.01;;;6.35;;
68942;SDS011;60852;52.190;4.422;2023-07-31T00:22:05;8.54;;;6.67;;
68942;SDS011;60852;52.190;4.422;2023-07-31T00:24:31;8.50;;;6.59;;
68942;SDS011;60852;52.190;4.422;2023-07-31T00:26:56;7.01;;;5.51;;
68942;SDS011;60852;52.190;4.422;2023-07-31T00:29:22;7.51;;;5.97;;
68942;SDS011;60852;52.190;4.422;2023-07-31T00:31:47;8.08;;;6.62;;
68942;SDS011;60852;52.190;4.422;2023-07-31T00:34:13;8.38;;;7.01;;
68942;SDS011;60852;52.190;4.422;2023-07-31T00:36:38;9.09;;;7.63;;
68942;SDS011;60852;52.190;4.422;2023-07-31T00:39:04;9.37;;;7.83;;
68942;SDS011;60852;52.190;4.422;2023-07-31T00:41:29;10.85;;;8.85;;
68942;SDS011;60852;52.190;4.422;2023-07-31T00:43:55;10.81;;;8.76;;
68942;SDS011;60852;52.190;4.422;2023-07-31T00:46:20;11.28;;;9.02;;
68942;SDS011;60852;52.190;4.422;2023-07-31T00:48:46;12.09;;;9.51;;
68942;SDS011;60852;52.190;4.422;2023-07-31T00:51:12;12.65;;;9.79;;
68942;SDS011;60852;52.190;4.422;2023-07-31T00:53:38;11.50;;;9.14;;
68942;SDS011;60852;52.190;4.422;2023-07-31T00:56:05;11.82;;;9.38;;
68942;SDS011;60852;52.190;4.422;2023-07-31T00:58:31;11.74;;;9.37;;
68942;SDS011;60852;52.190;4.422;2023-07-31T01:00:57;10.44;;;8.64;;
68942;SDS011;60852;52.190;4.422;2023-07-31T01:03:22;9.60;;;8.19;;
68942;SDS011;60852;52.190;4.422;2023-07-31T01:11:11;10.82;;;9.06;;
68942;SDS011;60852;52.190;4.422;2023-07-31T01:13:44;10.62;;;8.85;;
68942;SDS011;60852;52.190;4.422;2023-07-31T01:16:11;11.97;;;9.78;;
68942;SDS011;60852;52.190;4.422;2023-07-31T01:18:36;12.82;;;10.11;;
68942;SDS011;60852;52.190;4.422;2023-07-31T01:21:30;12.70;;;10.00;;
68942;SDS011;60852;52.190;4.422;2023-07-31T01:27:06;12.29;;;9.92;;
68942;SDS011;60852;52.190;4.422;2023-07-31T01:32:02;11.59;;;9.52;;
68942;SDS011;60852;52.190;4.422;2023-07-31T01:34:29;11.24;;;9.16;;
68942;SDS011;60852;52.190;4.422;2023-07-31T01:36:57;10.99;;;9.01;;
68942;SDS011;60852;52.190;4.422;2023-07-31T01:39:25;11.26;;;9.45;;
68942;SDS011;60852;52.190;4.422;2023-07-31T01:41:51;11.50;;;9.64;;
68942;SDS011;60852;52.190;4.422;2023-07-31T01:44:16;11.47;;;9.43;;
68942;SDS011;60852;52.190;4.422;2023-07-31T01:46:42;11.81;;;9.85;;
68942;SDS011;60852;52.190;4.422;2023-07-31T01:49:07;11.52;;;9.64;;
68942;SDS011;60852;52.190;4.422;2023-07-31T01:51:33;12.17;;;10.10;;
68942;SDS011;60852;52.190;4.422;2023-07-31T01:54:02;11.00;;;9.08;;
68942;SDS011;60852;52.190;4.422;2023-07-31T01:56:27;12.01;;;9.65;;
68942;SDS011;60852;52.190;4.422;2023-07-31T01:58:53;11.95;;;9.48;;
68942;SDS011;60852;52.190;4.422;2023-07-31T02:01:19;11.31;;;9.11;;
68942;SDS011;60852;52.190;4.422;2023-07-31T02:03:44;10.96;;;8.99;;
68942;SDS011;60852;52.190;4.422;2023-07-31T02:06:10;10.46;;;8.76;;
68942;SDS011;60852;52.190;4.422;2023-07-31T02:08:35;11.49;;;9.36;;
68942;SDS011;60852;52.190;4.422;2023-07-31T02:11:00;11.26;;;9.15;;
68942;SDS011;60852;52.190;4.422;2023-07-31T02:13:26;11.60;;;9.34;;
68942;SDS011;60852;52.190;4.422;2023-07-31T02:15:51;10.97;;;8.94;;
68942;SDS011;60852;52.190;4.422;2023-07-31T02:18:17;10.81;;;8.94;;
68942;SDS011;60852;52.190;4.422;2023-07-31T02:20:42;10.65;;;8.95;;
68942;SDS011;60852;52.190;4.422;2023-07-31T02:23:11;10.49;;;8.83;;
68942;SDS011;60852;52.190;4.422;2023-07-31T02:25:36;9.90;;;8.27;;
68942;SDS011;60852;52.190;4.422;2023-07-31T02:28:02;10.47;;;8.88;;
68942;SDS011;60852;52.190;4.422;2023-07-31T02:30:27;11.01;;;9.11;;
68942;SDS011;60852;52.190;4.422;2023-07-31T02:32:53;11.18;;;9.19;;
68942;SDS011;60852;52.190;4.422;2023-07-31T02:35:18;11.54;;;9.40;;
68942;SDS011;60852;52.190;4.422;2023-07-31T02:37:44;12.03;;;9.67;;
68942;SDS011;60852;52.190;4.422;2023-07-31T02:40:09;11.82;;;9.51;;
68942;SDS011;60852;52.190;4.422;2023-07-31T02:42:35;12.03;;;9.63;;
68942;SDS011;60852;52.190;4.422;2023-07-31T02:45:01;12.40;;;9.89;;
68942;SDS011;60852;52.190;4.422;2023-07-31T02:47:26;12.16;;;9.80;;
68942;SDS011;60852;52.190;4.422;2023-07-31T02:49:52;11.62;;;9.48;;
68942;SDS011;60852;52.190;4.422;2023-07-31T02:52:17;11.22;;;9.22;;
68942;SDS011;60852;52.190;4.422;2023-07-31T02:54:42;11.53;;;9.27;;
68942;SDS011;60852;52.190;4.422;2023-07-31T02:57:08;11.98;;;9.72;;
68942;SDS011;60852;52.190;4.422;2023-07-31T02:59:33;13.23;;;10.33;;
68942;SDS011;60852;52.190;4.422;2023-07-31T03:01:59;11.79;;;9.53;;
68942;SDS011;60852;52.190;4.422;2023-07-31T03:04:24;12.65;;;10.12;;
68942;SDS011;60852;52.190;4.422;2023-07-31T03:06:50;12.96;;;10.13;;
68942;SDS011;60852;52.190;4.422;2023-07-31T03:09:15;12.57;;;9.84;;
68942;SDS011;60852;52.190;4.422;2023-07-31T03:11:41;14.38;;;11.00;;
68942;SDS011;60852;52.190;4.422;2023-07-31T03:14:06;14.22;;;10.93;;
68942;SDS011;60852;52.190;4.422;2023-07-31T03:16:32;12.68;;;10.05;;
68942;SDS011;60852;52.190;4.422;2023-07-31T03:18:57;11.79;;;9.69;;
68942;SDS011;60852;52.190;4.422;2023-07-31T03:21:23;13.22;;;10.34;;
68942;SDS011;60852;52.190;4.422;2023-07-31T03:23:48;13.23;;;10.30;;
68942;SDS011;60852;52.190;4.422;2023-07-31T03:26:14;13.29;;;10.32;;
68942;SDS011;60852;52.190;4.422;2023-07-31T03:28:39;13.13;;;10.25;;
68942;SDS011;60852;52.190;4.422;2023-07-31T03:31:05;12.40;;;9.75;;
68942;SDS011;60852;52.190;4.422;2023-07-31T03:33:30;12.64;;;9.76;;
68942;SDS011;60852;52.190;4.422;2023-07-31T03:35:56;13.66;;;10.49;;
68942;SDS011;60852;52.190;4.422;2023-07-31T03:38:21;13.18;;;10.26;;
68942;SDS011;60852;52.190;4.422;2023-07-31T03:40:47;11.73;;;9.45;;
68942;SDS011;60852;52.190;4.422;2023-07-31T03:43:13;11.35;;;9.33;;
68942;SDS011;60852;52.190;4.422;2023-07-31T03:45:38;11.69;;;9.32;;
68942;SDS011;60852;52.190;4.422;2023-07-31T03:48:04;11.50;;;9.22;;
68942;SDS011;60852;52.190;4.422;2023-07-31T03:50:30;10.87;;;8.64;;
68942;SDS011;60852;52.190;4.422;2023-07-31T03:52:55;12.28;;;9.68;;
68942;SDS011;60852;52.190;4.422;2023-07-31T03:55:21;11.12;;;8.61;;
68942;SDS011;60852;52.190;4.422;2023-07-31T03:57:49;8.30;;;6.67;;
68942;SDS011;60852;52.190;4.422;2023-07-31T04:00:15;7.22;;;5.82;;
68942;SDS011;60852;52.190;4.422;2023-07-31T04:02:40;6.52;;;5.23;;
68942;SDS011;60852;52.190;4.422;2023-07-31T04:05:06;6.05;;;4.96;;
68942;SDS011;60852;52.190;4.422;2023-07-31T04:07:32;6.63;;;5.38;;
68942;SDS011;60852;52.190;4.422;2023-07-31T04:09:58;6.02;;;4.85;;
68942;SDS011;60852;52.190;4.422;2023-07-31T04:12:25;5.55;;;4.47;;
68942;SDS011;60852;52.190;4.422;2023-07-31T04:14:50;5.83;;;4.79;;
68942;SDS011;60852;52.190;4.422;2023-07-31T04:17:17;5.04;;;4.26;;
68942;SDS011;60852;52.190;4.422;2023-07-31T04:19:43;4.66;;;3.93;;
68942;SDS011;60852;52.190;4.422;2023-07-31T04:22:08;4.59;;;3.83;;
68942;SDS011;60852;52.190;4.422;2023-07-31T04:24:34;4.25;;;3.53;;
68942;SDS011;60852;52.190;4.422;2023-07-31T04:26:59;3.41;;;2.86;;
68942;SDS011;60852;52.190;4.422;2023-07-31T04:29:25;3.54;;;2.92;;
68942;SDS011;60852;52.190;4.422;2023-07-31T04:31:50;3.66;;;2.90;;
68942;SDS011;60852;52.190;4.422;2023-07-31T04:34:16;3.87;;;2.91;;
68942;SDS011;60852;52.190;4.422;2023-07-31T04:36:41;4.72;;;3.37;;
68942;SDS011;60852;52.190;4.422;2023-07-31T04:39:07;5.29;;;3.69;;
68942;SDS011;60852;52.190;4.422;2023-07-31T04:41:32;5.67;;;3.87;;
68942;SDS011;60852;52.190;4.422;2023-07-31T04:43:58;6.22;;;4.10;;
68942;SDS011;60852;52.190;4.422;2023-07-31T04:46:23;5.34;;;3.56;;
68942;SDS011;60852;52.190;4.422;2023-07-31T04:48:48;5.94;;;3.94;;
68942;SDS011;60852;52.190;4.422;2023-07-31T04:51:14;6.11;;;4.02;;
68942;SDS011;60852;52.190;4.422;2023-07-31T04:53:39;6.09;;;4.06;;
68942;SDS011;60852;52.190;4.422;2023-07-31T04:56:05;6.57;;;4.37;;
68942;SDS011;60852;52.190;4.422;2023-07-31T04:58:30;7.34;;;4.76;;
68942;SDS011;60852;52.190;4.422;2023-07-31T05:00:56;8.26;;;5.32;;
68942;SDS011;60852;52.190;4.422;2023-07-31T05:03:21;7.27;;;4.56;;
68942;SDS011;60852;52.190;4.422;2023-07-31T05:05:47;7.55;;;4.71;;
68942;SDS011;60852;52.190;4.422;2023-07-31T05:08:13;6.23;;;4.01;;
68942;SDS011;60852;52.190;4.422;2023-07-31T05:10:38;7.09;;;4.71;;
68942;SDS011;60852;52.190;4.422;2023-07-31T05:13:04;6.70;;;4.57;;
68942;SDS011;60852;52.190;4.422;2023-07-31T05:15:29;6.40;;;4.53;;
68942;SDS011;60852;52.190;4.422;2023-07-31T05:17:56;6.76;;;4.88;;
68942;SDS011;60852;52.190;4.422;2023-07-31T05:20:21;6.14;;;4.58;;
68942;SDS011;60852;52.190;4.422;2023-07-31T05:22:47;5.39;;;4.11;;
68942;SDS011;60852;52.190;4.422;2023-07-31T05:25:12;5.62;;;4.34;;
68942;SDS011;60852;52.190;4.422;2023-07-31T05:27:38;5.89;;;4.36;;
68942;SDS011;60852;52.190;4.422;2023-07-31T05:30:04;5.29;;;4.00;;
68942;SDS011;60852;52.190;4.422;2023-07-31T05:32:30;4.63;;;3.64;;
68942;SDS011;60852;52.190;4.422;2023-07-31T05:34:55;5.02;;;3.96;;
68942;SDS011;60852;52.190;4.422;2023-07-31T05:37:21;5.11;;;4.03;;
68942;SDS011;60852;52.190;4.422;2023-07-31T05:39:47;5.22;;;4.17;;
68942;SDS011;60852;52.190;4.422;2023-07-31T05:42:12;5.41;;;4.27;;
68942;SDS011;60852;52.190;4.422;2023-07-31T05:44:38;6.65;;;5.09;;
68942;SDS011;60852;52.190;4.422;2023-07-31T05:47:03;5.78;;;4.35;;
68942;SDS011;60852;52.190;4.422;2023-07-31T05:49:29;5.83;;;4.37;;
68942;SDS011;60852;52.190;4.422;2023-07-31T05:51:55;5.55;;;4.18;;
68942;SDS011;60852;52.190;4.422;2023-07-31T05:54:20;4.79;;;3.56;;
68942;SDS011;60852;52.190;4.422;2023-07-31T05:56:46;6.28;;;4.48;;
68942;SDS011;60852;52.190;4.422;2023-07-31T05:59:12;5.53;;;3.91;;
68942;SDS011;60852;52.190;4.422;2023-07-31T06:01:38;5.59;;;4.01;;
68942;SDS011;60852;52.190;4.422;2023-07-31T06:04:04;4.96;;;3.67;;
68942;SDS011;60852;52.190;4.422;2023-07-31T06:06:30;5.04;;;3.75;;
68942;SDS011;60852;52.190;4.422;2023-07-31T06:08:56;5.89;;;4.29;;
68942;SDS011;60852;52.190;4.422;2023-07-31T06:11:21;6.20;;;4.52;;
68942;SDS011;60852;52.190;4.422;2023-07-31T06:13:47;6.19;;;4.53;;
68942;SDS011;60852;52.190;4.422;2023-07-31T06:16:14;7.62;;;5.49;;
68942;SDS011;60852;52.190;4.422;2023-07-31T06:18:40;5.92;;;4.29;;
68942;SDS011;60852;52.190;4.422;2023-07-31T06:21:06;6.26;;;4.60;;
68942;SDS011;60852;52.190;4.422;2023-07-31T06:23:32;6.06;;;4.49;;
68942;SDS011;60852;52.190;4.422;2023-07-31T06:25:57;6.00;;;4.60;;
68942;SDS011;60852;52.190;4.422;2023-07-31T06:28:27;6.39;;;4.85;;
68942;SDS011;60852;52.190;4.422;2023-07-31T06:30:59;7.13;;;5.33;;
68942;SDS011;60852;52.190;4.422;2023-07-31T06:33:24;7.51;;;5.61;;
68942;SDS011;60852;52.190;4.422;2023-07-31T06:35:50;7.61;;;5.71;;
68942;SDS011;60852;52.190;4.422;2023-07-31T06:38:18;7.98;;;5.88;;
68942;SDS011;60852;52.190;4.422;2023-07-31T06:40:48;7.76;;;5.75;;
68942;SDS011;60852;52.190;4.422;2023-07-31T06:43:14;6.99;;;5.22;;
68942;SDS011;60852;52.190;4.422;2023-07-31T06:45:39;6.18;;;4.80;;
68942;SDS011;60852;52.190;4.422;2023-07-31T06:48:05;7.49;;;5.63;;
68942;SDS011;60852;52.190;4.422;2023-07-31T06:50:31;8.35;;;6.16;;
68942;SDS011;60852;52.190;4.422;2023-07-31T06:52:56;8.09;;;6.02;;
68942;SDS011;60852;52.190;4.422;2023-07-31T06:55:22;8.04;;;6.03;;
68942;SDS011;60852;52.190;4.422;2023-07-31T06:57:49;8.40;;;6.40;;
68942;SDS011;60852;52.190;4.422;2023-07-31T07:00:17;8.11;;;6.34;;
68942;SDS011;60852;52.190;4.422;2023-07-31T07:02:43;7.87;;;6.03;;
68942;SDS011;60852;52.190;4.422;2023-07-31T07:05:08;9.07;;;6.79;;
68942;SDS011;60852;52.190;4.422;2023-07-31T07:07:35;9.03;;;6.92;;
68942;SDS011;60852;52.190;4.422;2023-07-31T07:10:01;8.72;;;6.83;;
68942;SDS011;60852;52.190;4.422;2023-07-31T07:12:29;9.17;;;7.09;;
68942;SDS011;60852;52.190;4.422;2023-07-31T07:14:56;9.56;;;7.54;;
68942;SDS011;60852;52.190;4.422;2023-07-31T07:17:22;9.36;;;7.19;;
68942;SDS011;60852;52.190;4.422;2023-07-31T07:19:48;8.63;;;6.72;;
68942;SDS011;60852;52.190;4.422;2023-07-31T07:22:14;8.36;;;6.48;;
68942;SDS011;60852;52.190;4.422;2023-07-31T07:24:40;8.41;;;6.51;;
68942;SDS011;60852;52.190;4.422;2023-07-31T07:27:05;8.15;;;6.05;;
68942;SDS011;60852;52.190;4.422;2023-07-31T07:29:33;9.03;;;6.58;;
68942;SDS011;60852;52.190;4.422;2023-07-31T07:31:59;8.35;;;6.16;;
68942;SDS011;60852;52.190;4.422;2023-07-31T07:34:25;8.57;;;6.42;;
68942;SDS011;60852;52.190;4.422;2023-07-31T07:36:52;9.24;;;6.89;;
68942;SDS011;60852;52.190;4.422;2023-07-31T07:39:18;8.94;;;6.72;;
68942;SDS011;60852;52.190;4.422;2023-07-31T07:41:43;8.74;;;6.58;;
68942;SDS011;60852;52.190;4.422;2023-07-31T07:44:09;9.03;;;6.64;;
68942;SDS011;60852;52.190;4.422;2023-07-31T07:46:34;9.27;;;6.80;;
68942;SDS011;60852;52.190;4.422;2023-07-31T07:49:00;9.62;;;6.82;;
68942;SDS011;60852;52.190;4.422;2023-07-31T07:51:25;9.12;;;6.51;;
68942;SDS011;60852;52.190;4.422;2023-07-31T07:53:51;8.71;;;6.31;;
68942;SDS011;60852;52.190;4.422;2023-07-31T07:56:16;8.65;;;6.26;;
68942;SDS011;60852;52.190;4.422;2023-07-31T07:58:42;8.66;;;6.33;;
68942;SDS011;60852;52.190;4.422;2023-07-31T08:01:07;8.16;;;5.90;;
68942;SDS011;60852;52.190;4.422;2023-07-31T08:03:33;7.69;;;5.64;;
68942;SDS011;60852;52.190;4.422;2023-07-31T08:05:58;9.04;;;6.36;;
68942;SDS011;60852;52.190;4.422;2023-07-31T08:08:25;8.40;;;5.90;;
68942;SDS011;60852;52.190;4.422;2023-07-31T08:10:51;7.64;;;5.61;;
68942;SDS011;60852;52.190;4.422;2023-07-31T08:13:16;7.72;;;5.68;;
68942;SDS011;60852;52.190;4.422;2023-07-31T08:15:42;8.62;;;6.15;;
68942;SDS011;60852;52.190;4.422;2023-07-31T08:18:08;9.22;;;6.49;;
68942;SDS011;60852;52.190;4.422;2023-07-31T08:20:33;9.02;;;6.34;;
68942;SDS011;60852;52.190;4.422;2023-07-31T08:22:59;8.94;;;6.21;;
68942;SDS011;60852;52.190;4.422;2023-07-31T08:25:25;8.45;;;5.90;;
68942;SDS011;60852;52.190;4.422;2023-07-31T08:27:50;8.55;;;5.94;;
68942;SDS011;60852;52.190;4.422;2023-07-31T08:30:18;8.82;;;6.22;;
68942;SDS011;60852;52.190;4.422;2023-07-31T08:32:44;9.14;;;6.26;;
68942;SDS011;60852;52.190;4.422;2023-07-31T08:35:10;9.32;;;6.35;;
68942;SDS011;60852;52.190;4.422;2023-07-31T08:37:37;10.34;;;6.85;;
68942;SDS011;60852;52.190;4.422;2023-07-31T08:40:04;11.59;;;7.59;;
68942;SDS011;60852;52.190;4.422;2023-07-31T08:42:30;10.87;;;7.21;;
68942;SDS011;60852;52.190;4.422;2023-07-31T08:44:56;10.65;;;7.08;;
68942;SDS011;60852;52.190;4.422;2023-07-31T08:47:25;10.61;;;7.15;;
68942;SDS011;60852;52.190;4.422;2023-07-31T08:49:51;9.82;;;6.63;;
68942;SDS011;60852;52.190;4.422;2023-07-31T08:52:18;9.21;;;6.29;;
68942;SDS011;60852;52.190;4.422;2023-07-31T08:54:44;9.79;;;6.54;;
68942;SDS011;60852;52.190;4.422;2023-07-31T08:57:09;9.81;;;6.50;;
68942;SDS011;60852;52.190;4.422;2023-07-31T08:59:38;9.77;;;6.42;;
68942;SDS011;60852;52.190;4.422;2023-07-31T09:02:06;10.17;;;6.64;;
68942;SDS011;60852;52.190;4.422;2023-07-31T09:04:33;9.73;;;6.55;;
68942;SDS011;60852;52.190;4.422;2023-07-31T09:07:00;9.79;;;6.49;;
68942;SDS011;60852;52.190;4.422;2023-07-31T09:09:30;10.20;;;6.68;;
68942;SDS011;60852;52.190;4.422;2023-07-31T09:11:57;9.77;;;6.38;;
68942;SDS011;60852;52.190;4.422;2023-07-31T09:14:24;8.41;;;5.62;;
68942;SDS011;60852;52.190;4.422;2023-07-31T09:16:54;9.58;;;6.43;;
68942;SDS011;60852;52.190;4.422;2023-07-31T09:19:24;9.57;;;6.42;;
68942;SDS011;60852;52.190;4.422;2023-07-31T09:21:51;9.90;;;6.57;;
68942;SDS011;60852;52.190;4.422;2023-07-31T09:24:29;8.67;;;5.91;;
68942;SDS011;60852;52.190;4.422;2023-07-31T09:26:57;8.59;;;6.01;;
68942;SDS011;60852;52.190;4.422;2023-07-31T09:29:25;9.08;;;6.24;;
68942;SDS011;60852;52.190;4.422;2023-07-31T09:31:52;8.85;;;6.10;;
68942;SDS011;60852;52.190;4.422;2023-07-31T09:34:19;8.91;;;6.05;;
68942;SDS011;60852;52.190;4.422;2023-07-31T09:36:49;8.95;;;6.05;;
68942;SDS011;60852;52.190;4.422;2023-07-31T09:39:15;7.90;;;5.47;;
68942;SDS011;60852;52.190;4.422;2023-07-31T09:41:43;8.46;;;5.88;;
68942;SDS011;60852;52.190;4.422;2023-07-31T09:44:18;9.03;;;6.10;;
68942;SDS011;60852;52.190;4.422;2023-07-31T09:46:44;8.80;;;6.03;;
68942;SDS011;60852;52.190;4.422;2023-07-31T09:49:11;8.70;;;6.01;;
68942;SDS011;60852;52.190;4.422;2023-07-31T09:51:39;7.37;;;5.23;;
68942;SDS011;60852;52.190;4.422;2023-07-31T09:54:11;8.50;;;5.94;;
68942;SDS011;60852;52.190;4.422;2023-07-31T09:56:47;7.58;;;5.45;;
68942;SDS011;60852;52.190;4.422;2023-07-31T09:59:14;7.97;;;5.70;;
68942;SDS011;60852;52.190;4.422;2023-07-31T10:01:42;9.28;;;6.49;;
68942;SDS011;60852;52.190;4.422;2023-07-31T10:04:10;9.82;;;6.75;;
68942;SDS011;60852;52.190;4.422;2023-07-31T10:06:37;8.59;;;6.12;;
68942;SDS011;60852;52.190;4.422;2023-07-31T10:09:07;8.34;;;5.91;;
68942;SDS011;60852;52.190;4.422;2023-07-31T10:11:43;9.07;;;6.36;;
68942;SDS011;60852;52.190;4.422;2023-07-31T10:14:18;8.45;;;6.06;;
68942;SDS011;60852;52.190;4.422;2023-07-31T10:16:45;7.82;;;5.72;;
68942;SDS011;60852;52.190;4.422;2023-07-31T10:19:11;8.41;;;6.00;;
68942;SDS011;60852;52.190;4.422;2023-07-31T10:21:37;8.17;;;5.76;;
68942;SDS011;60852;52.190;4.422;2023-07-31T10:24:03;6.79;;;4.94;;
68942;SDS011;60852;52.190;4.422;2023-07-31T10:26:30;7.90;;;5.68;;
68942;SDS011;60852;52.190;4.422;2023-07-31T10:28:58;7.99;;;5.72;;
68942;SDS011;60852;52.190;4.422;2023-07-31T10:31:25;7.54;;;5.46;;
68942;SDS011;60852;52.190;4.422;2023-07-31T10:33:52;8.06;;;5.75;;
68942;SDS011;60852;52.190;4.422;2023-07-31T10:36:19;8.21;;;5.83;;
68942;SDS011;60852;52.190;4.422;2023-07-31T10:38:48;7.81;;;5.48;;
68942;SDS011;60852;52.190;4.422;2023-07-31T10:41:14;8.05;;;5.79;;
68942;SDS011;60852;52.190;4.422;2023-07-31T10:43:40;7.47;;;5.44;;
68942;SDS011;60852;52.190;4.422;2023-07-31T10:46:09;6.87;;;5.12;;
68942;SDS011;60852;52.190;4.422;2023-07-31T10:48:38;6.90;;;5.25;;
68942;SDS011;60852;52.190;4.422;2023-07-31T10:51:10;6.86;;;5.12;;
68942;SDS011;60852;52.190;4.422;2023-07-31T10:53:42;7.99;;;5.90;;
68942;SDS011;60852;52.190;4.422;2023-07-31T10:56:09;7.64;;;5.55;;
68942;SDS011;60852;52.190;4.422;2023-07-31T10:58:38;7.57;;;5.51;;
68942;SDS011;60852;52.190;4.422;2023-07-31T11:01:04;6.68;;;4.94;;
68942;SDS011;60852;52.190;4.422;2023-07-31T11:03:41;6.39;;;4.75;;
68942;SDS011;60852;52.190;4.422;2023-07-31T11:06:07;6.67;;;4.85;;
68942;SDS011;60852;52.190;4.422;2023-07-31T11:08:33;6.84;;;4.85;;
68942;SDS011;60852;52.190;4.422;2023-07-31T11:11:07;6.89;;;4.90;;
68942;SDS011;60852;52.190;4.422;2023-07-31T11:13:50;7.08;;;5.07;;
68942;SDS011;60852;52.190;4.422;2023-07-31T11:16:18;7.02;;;5.05;;
68942;SDS011;60852;52.190;4.422;2023-07-31T11:18:46;6.91;;;5.01;;
68942;SDS011;60852;52.190;4.422;2023-07-31T11:21:13;6.72;;;4.82;;
68942;SDS011;60852;52.190;4.422;2023-07-31T11:23:41;7.31;;;5.26;;
68942;SDS011;60852;52.190;4.422;2023-07-31T11:26:10;7.29;;;5.20;;
68942;SDS011;60852;52.190;4.422;2023-07-31T11:28:36;7.34;;;5.13;;
68942;SDS011;60852;52.190;4.422;2023-07-31T11:31:03;6.68;;;4.86;;
68942;SDS011;60852;52.190;4.422;2023-07-31T11:33:29;6.66;;;4.82;;
68942;SDS011;60852;52.190;4.422;2023-07-31T11:35:55;6.58;;;4.76;;
68942;SDS011;60852;52.190;4.422;2023-07-31T11:38:27;6.66;;;4.79;;
68942;SDS011;60852;52.190;4.422;2023-07-31T11:40:56;5.90;;;4.32;;
68942;SDS011;60852;52.190;4.422;2023-07-31T11:43:23;6.15;;;4.47;;
68942;SDS011;60852;52.190;4.422;2023-07-31T11:45:50;5.73;;;4.22;;
68942;SDS011;60852;52.190;4.422;2023-07-31T11:48:27;5.69;;;4.12;;
68942;SDS011;60852;52.190;4.422;2023-07-31T11:50:58;6.72;;;4.81;;
68942;SDS011;60852;52.190;4.422;2023-07-31T11:53:33;6.13;;;4.40;;
68942;SDS011;60852;52.190;4.422;2023-07-31T11:56:05;5.46;;;4.02;;
68942;SDS011;60852;52.190;4.422;2023-07-31T11:58:36;6.24;;;4.45;;
68942;SDS011;60852;52.190;4.422;2023-07-31T12:01:03;6.36;;;4.50;;
68942;SDS011;60852;52.190;4.422;2023-07-31T12:03:30;6.53;;;4.66;;
68942;SDS011;60852;52.190;4.422;2023-07-31T12:05:57;6.82;;;4.89;;
68942;SDS011;60852;52.190;4.422;2023-07-31T12:08:24;6.91;;;4.86;;
68942;SDS011;60852;52.190;4.422;2023-07-31T12:10:54;6.80;;;4.76;;
68942;SDS011;60852;52.190;4.422;2023-07-31T12:13:26;6.56;;;4.54;;
68942;SDS011;60852;52.190;4.422;2023-07-31T12:15:56;5.59;;;4.01;;
68942;SDS011;60852;52.190;4.422;2023-07-31T12:18:24;5.13;;;3.77;;
68942;SDS011;60852;52.190;4.422;2023-07-31T12:20:55;4.79;;;3.58;;
68942;SDS011;60852;52.190;4.422;2023-07-31T12:28:34;4.86;;;3.62;;
68942;SDS011;60852;52.190;4.422;2023-07-31T12:31:02;4.99;;;3.76;;
68942;SDS011;60852;52.190;4.422;2023-07-31T12:33:31;5.52;;;4.07;;
68942;SDS011;60852;52.190;4.422;2023-07-31T12:36:00;5.02;;;3.72;;
68942;SDS011;60852;52.190;4.422;2023-07-31T12:38:26;5.85;;;4.32;;
68942;SDS011;60852;52.190;4.422;2023-07-31T12:40:52;4.91;;;3.65;;
68942;SDS011;60852;52.190;4.422;2023-07-31T12:43:18;4.72;;;3.57;;
68942;SDS011;60852;52.190;4.422;2023-07-31T12:45:43;4.58;;;3.43;;
68942;SDS011;60852;52.190;4.422;2023-07-31T12:48:08;5.17;;;3.84;;
68942;SDS011;60852;52.190;4.422;2023-07-31T12:50:35;4.60;;;3.48;;
68942;SDS011;60852;52.190;4.422;2023-07-31T12:53:02;5.01;;;3.72;;
68942;SDS011;60852;52.190;4.422;2023-07-31T12:55:28;4.11;;;3.14;;
68942;SDS011;60852;52.190;4.422;2023-07-31T12:57:55;4.24;;;3.28;;
68942;SDS011;60852;52.190;4.422;2023-07-31T13:00:21;3.33;;;2.62;;
68942;SDS011;60852;52.190;4.422;2023-07-31T13:02:46;3.82;;;2.95;;
68942;SDS011;60852;52.190;4.422;2023-07-31T13:05:12;3.73;;;2.87;;
68942;SDS011;60852;52.190;4.422;2023-07-31T13:07:38;3.55;;;2.77;;
68942;SDS011;60852;52.190;4.422;2023-07-31T13:10:04;3.94;;;3.03;;
68942;SDS011;60852;52.190;4.422;2023-07-31T13:12:31;3.67;;;2.82;;
68942;SDS011;60852;52.190;4.422;2023-07-31T13:14:56;3.20;;;2.45;;
68942;SDS011;60852;52.190;4.422;2023-07-31T13:17:22;2.70;;;2.05;;
68942;SDS011;60852;52.190;4.422;2023-07-31T13:19:47;2.92;;;2.17;;
68942;SDS011;60852;52.190;4.422;2023-07-31T13:22:14;2.61;;;1.90;;
68942;SDS011;60852;52.190;4.422;2023-07-31T13:24:39;3.03;;;2.22;;
68942;SDS011;60852;52.190;4.422;2023-07-31T13:27:04;3.27;;;2.43;;
68942;SDS011;60852;52.190;4.422;2023-07-31T13:29:30;4.42;;;3.27;;
68942;SDS011;60852;52.190;4.422;2023-07-31T13:31:57;5.35;;;3.92;;
68942;SDS011;60852;52.190;4.422;2023-07-31T13:34:23;5.54;;;4.20;;
68942;SDS011;60852;52.190;4.422;2023-07-31T13:36:48;5.59;;;4.29;;
68942;SDS011;60852;52.190;4.422;2023-07-31T13:39:14;6.17;;;4.68;;
68942;SDS011;60852;52.190;4.422;2023-07-31T13:41:39;7.25;;;5.41;;
68942;SDS011;60852;52.190;4.422;2023-07-31T13:44:05;7.31;;;5.55;;
68942;SDS011;60852;52.190;4.422;2023-07-31T13:46:30;6.63;;;5.00;;
68942;SDS011;60852;52.190;4.422;2023-07-31T13:48:57;7.35;;;5.46;;
68942;SDS011;60852;52.190;4.422;2023-07-31T13:51:24;7.45;;;5.51;;
68942;SDS011;60852;52.190;4.422;2023-07-31T13:53:50;7.25;;;5.35;;
68942;SDS011;60852;52.190;4.422;2023-07-31T13:56:16;6.33;;;4.57;;
68942;SDS011;60852;52.190;4.422;2023-07-31T13:58:41;6.47;;;4.61;;
68942;SDS011;60852;52.190;4.422;2023-07-31T14:01:07;6.85;;;4.85;;
68942;SDS011;60852;52.190;4.422;2023-07-31T14:03:32;6.31;;;4.64;;
68942;SDS011;60852;52.190;4.422;2023-07-31T14:05:58;6.26;;;4.62;;
68942;SDS011;60852;52.190;4.422;2023-07-31T14:08:23;6.63;;;4.69;;
68942;SDS011;60852;52.190;4.422;2023-07-31T14:10:49;7.17;;;4.97;;
68942;SDS011;60852;52.190;4.422;2023-07-31T14:13:14;6.79;;;4.79;;
68942;SDS011;60852;52.190;4.422;2023-07-31T14:15:41;6.03;;;4.39;;
68942;SDS011;60852;52.190;4.422;2023-07-31T14:18:07;5.88;;;4.27;;
68942;SDS011;60852;52.190;4.422;2023-07-31T14:20:33;5.09;;;3.65;;
68942;SDS011;60852;52.190;4.422;2023-07-31T14:22:58;5.71;;;4.01;;
68942;SDS011;60852;52.190;4.422;2023-07-31T14:25:24;5.89;;;4.10;;
68942;SDS011;60852;52.190;4.422;2023-07-31T14:27:50;6.08;;;4.19;;
68942;SDS011;60852;52.190;4.422;2023-07-31T14:30:15;6.07;;;4.07;;
68942;SDS011;60852;52.190;4.422;2023-07-31T14:32:41;6.14;;;4.04;;
68942;SDS011;60852;52.190;4.422;2023-07-31T14:35:07;5.12;;;3.44;;
68942;SDS011;60852;52.190;4.422;2023-07-31T14:37:36;4.53;;;3.07;;
68942;SDS011;60852;52.190;4.422;2023-07-31T14:40:10;5.20;;;3.57;;
68942;SDS011;60852;52.190;4.422;2023-07-31T14:42:37;4.84;;;3.26;;
68942;SDS011;60852;52.190;4.422;2023-07-31T14:45:04;4.81;;;3.25;;
68942;SDS011;60852;52.190;4.422;2023-07-31T14:47:30;4.77;;;3.29;;
68942;SDS011;60852;52.190;4.422;2023-07-31T14:49:57;3.74;;;2.59;;
68942;SDS011;60852;52.190;4.422;2023-07-31T14:52:23;3.67;;;2.52;;
68942;SDS011;60852;52.190;4.422;2023-07-31T14:54:48;3.60;;;2.49;;